Natick, Massachusetts
Current Conditions -  °F | °C
As of 10:53 AM on Tuesday 21 Oct 2014 (Local Time) from KOWD Reporting Station
Broken Clouds Broken Clouds  
Wind Chill: 61°   Ceiling: 5500
Heat Index: 61°   Visibility: 10mi
Dew Point: 53°   Wind: 8mph
Humidity: 75%   Direction: 150°SSE
Pressure: 29.95"   Gusts: NA
Location:  42.28°N, 71.35°W
Report Text: KOWD 211453Z 15007KT 10SM BKN055 BKN120 16/12 A2995 RMK AO2 SLP141 T01610117 58005
Loading
Personal Weather Stations






























Interactive Weather Map
Tropical Storm Tracking
New forecast layout! Learn more

10-Day Weather Forecast

Advertisements
Track Severe Weather on mobile